sensor_id;sensor_type;location;lat;lon;timestamp;pressure;altitude;pressure_sealevel;temperature;humidity
69689;BME280;56932;38.402;-96.176;2023-04-08T00:01:53;98327.82;;;21.34;13.77
69689;BME280;56932;38.402;-96.176;2023-04-08T00:04:18;98325.68;;;22.48;13.37
69689;BME280;56932;38.402;-96.176;2023-04-08T00:06:44;98326.67;;;22.64;13.50
69689;BME280;56932;38.402;-96.176;2023-04-08T00:09:09;98327.97;;;22.44;13.70
69689;BME280;56932;38.402;-96.176;2023-04-08T00:11:35;98327.08;;;21.82;14.30
69689;BME280;56932;38.402;-96.176;2023-04-08T00:14:01;98330.28;;;22.89;13.57
69689;BME280;56932;38.402;-96.176;2023-04-08T00:16:25;98326.59;;;22.49;13.67
69689;BME280;56932;38.402;-96.176;2023-04-08T00:18:51;98330.27;;;21.68;13.98
69689;BME280;56932;38.402;-96.176;2023-04-08T00:21:16;98330.87;;;22.51;13.83
69689;BME280;56932;38.402;-96.176;2023-04-08T00:23:42;98332.81;;;21.56;14.23
69689;BME280;56932;38.402;-96.176;2023-04-08T00:26:08;98339.52;;;22.40;13.96
69689;BME280;56932;38.402;-96.176;2023-04-08T00:28:33;98347.27;;;22.81;13.85
69689;BME280;56932;38.402;-96.176;2023-04-08T00:30:58;98342.62;;;21.01;14.49
69689;BME280;56932;38.402;-96.176;2023-04-08T00:33:24;98344.94;;;21.20;14.65
69689;BME280;56932;38.402;-96.176;2023-04-08T00:35:49;98346.23;;;20.81;14.43
69689;BME280;56932;38.402;-96.176;2023-04-08T00:38:14;98349.99;;;21.04;14.72
69689;BME280;56932;38.402;-96.176;2023-04-08T00:40:40;98352.21;;;21.54;14.76
69689;BME280;56932;38.402;-96.176;2023-04-08T00:43:05;98359.85;;;21.54;14.60
69689;BME280;56932;38.402;-96.176;2023-04-08T00:45:32;98359.44;;;21.96;14.50
69689;BME280;56932;38.402;-96.176;2023-04-08T00:47:56;98360.90;;;21.68;14.61
69689;BME280;56932;38.402;-96.176;2023-04-08T00:50:22;98365.11;;;21.40;14.79
69689;BME280;56932;38.402;-96.176;2023-04-08T00:52:48;98367.64;;;21.19;14.71
69689;BME280;56932;38.402;-96.176;2023-04-08T00:55:13;98369.26;;;22.02;14.86
69689;BME280;56932;38.402;-96.176;2023-04-08T00:57:39;98370.12;;;21.60;14.87
69689;BME280;56932;38.402;-96.176;2023-04-08T01:00:05;98372.26;;;22.02;14.77
69689;BME280;56932;38.402;-96.176;2023-04-08T01:02:37;98373.97;;;22.25;14.69
69689;BME280;56932;38.402;-96.176;2023-04-08T01:05:01;98370.67;;;21.81;14.91
69689;BME280;56932;38.402;-96.176;2023-04-08T01:07:24;98365.67;;;22.09;14.92
69689;BME280;56932;38.402;-96.176;2023-04-08T01:09:49;98371.80;;;22.66;14.39
69689;BME280;56932;38.402;-96.176;2023-04-08T01:12:14;98372.45;;;21.78;15.04
69689;BME280;56932;38.402;-96.176;2023-04-08T01:14:41;98371.51;;;22.05;15.09
69689;BME280;56932;38.402;-96.176;2023-04-08T01:17:03;98370.97;;;21.29;15.48
69689;BME280;56932;38.402;-96.176;2023-04-08T01:19:32;98374.24;;;21.47;15.44
69689;BME280;56932;38.402;-96.176;2023-04-08T01:21:54;98375.36;;;21.48;15.38
69689;BME280;56932;38.402;-96.176;2023-04-08T01:24:25;98373.04;;;22.22;15.32
69689;BME280;56932;38.402;-96.176;2023-04-08T01:26:45;98370.20;;;21.41;15.52
69689;BME280;56932;38.402;-96.176;2023-04-08T01:29:10;98369.21;;;22.45;15.21
69689;BME280;56932;38.402;-96.176;2023-04-08T01:31:36;98371.28;;;21.92;15.59
69689;BME280;56932;38.402;-96.176;2023-04-08T01:34:01;98368.05;;;20.84;15.94
69689;BME280;56932;38.402;-96.176;2023-04-08T01:36:26;98367.17;;;22.45;15.40
69689;BME280;56932;38.402;-96.176;2023-04-08T01:38:52;98372.34;;;21.65;15.72
69689;BME280;56932;38.402;-96.176;2023-04-08T01:41:17;98369.34;;;22.44;15.59
69689;BME280;56932;38.402;-96.176;2023-04-08T01:43:43;98363.20;;;21.65;16.02
69689;BME280;56932;38.402;-96.176;2023-04-08T01:46:07;98366.30;;;21.72;16.15
69689;BME280;56932;38.402;-96.176;2023-04-08T01:48:33;98365.11;;;22.44;16.13
69689;BME280;56932;38.402;-96.176;2023-04-08T01:50:59;98370.28;;;21.96;15.82
69689;BME280;56932;38.402;-96.176;2023-04-08T01:53:23;98366.10;;;22.41;15.98
69689;BME280;56932;38.402;-96.176;2023-04-08T01:55:52;98368.24;;;21.07;16.53
69689;BME280;56932;38.402;-96.176;2023-04-08T01:58:18;98368.56;;;21.94;16.66
69689;BME280;56932;38.402;-96.176;2023-04-08T02:00:41;98368.74;;;22.83;16.12
69689;BME280;56932;38.402;-96.176;2023-04-08T02:03:05;98367.10;;;22.23;16.23
69689;BME280;56932;38.402;-96.176;2023-04-08T02:05:30;98369.66;;;22.24;16.46
69689;BME280;56932;38.402;-96.176;2023-04-08T02:07:56;98370.20;;;22.29;16.27
69689;BME280;56932;38.402;-96.176;2023-04-08T02:10:21;98368.03;;;22.89;16.24
69689;BME280;56932;38.402;-96.176;2023-04-08T02:12:48;98368.68;;;21.90;16.34
69689;BME280;56932;38.402;-96.176;2023-04-08T02:15:13;98368.33;;;22.29;16.47
69689;BME280;56932;38.402;-96.176;2023-04-08T02:17:43;98365.99;;;22.44;16.77
69689;BME280;56932;38.402;-96.176;2023-04-08T02:20:07;98370.92;;;22.36;16.68
69689;BME280;56932;38.402;-96.176;2023-04-08T02:22:37;98369.99;;;21.96;17.09
69689;BME280;56932;38.402;-96.176;2023-04-08T02:24:56;98373.14;;;22.33;16.97
69689;BME280;56932;38.402;-96.176;2023-04-08T02:27:24;98374.88;;;22.12;17.51
69689;BME280;56932;38.402;-96.176;2023-04-08T02:29:48;98374.92;;;21.25;17.77
69689;BME280;56932;38.402;-96.176;2023-04-08T02:32:14;98376.55;;;21.94;17.69
69689;BME280;56932;38.402;-96.176;2023-04-08T02:34:39;98376.28;;;22.89;17.09
69689;BME280;56932;38.402;-96.176;2023-04-08T02:37:03;98377.27;;;22.00;17.42
69689;BME280;56932;38.402;-96.176;2023-04-08T02:39:32;98381.38;;;22.46;17.28
69689;BME280;56932;38.402;-96.176;2023-04-08T02:41:54;98382.56;;;21.66;17.50
69689;BME280;56932;38.402;-96.176;2023-04-08T02:44:19;98385.88;;;22.62;17.61
69689;BME280;56932;38.402;-96.176;2023-04-08T02:46:45;98387.29;;;22.60;17.33
69689;BME280;56932;38.402;-96.176;2023-04-08T02:49:10;98383.79;;;22.73;17.50
69689;BME280;56932;38.402;-96.176;2023-04-08T02:51:36;98386.62;;;22.55;17.59
69689;BME280;56932;38.402;-96.176;2023-04-08T02:54:01;98383.65;;;22.92;17.24
69689;BME280;56932;38.402;-96.176;2023-04-08T02:56:27;98383.49;;;22.37;17.82
69689;BME280;56932;38.402;-96.176;2023-04-08T02:58:52;98383.21;;;21.63;17.78
69689;BME280;56932;38.402;-96.176;2023-04-08T03:01:17;98387.75;;;23.25;17.35
69689;BME280;56932;38.402;-96.176;2023-04-08T03:03:43;98390.36;;;21.76;18.02
69689;BME280;56932;38.402;-96.176;2023-04-08T03:06:08;98392.67;;;21.80;18.00
69689;BME280;56932;38.402;-96.176;2023-04-08T03:08:33;98389.63;;;23.23;17.25
69689;BME280;56932;38.402;-96.176;2023-04-08T03:10:59;98392.70;;;21.79;18.07
69689;BME280;56932;38.402;-96.176;2023-04-08T03:13:24;98396.95;;;22.36;18.00
69689;BME280;56932;38.402;-96.176;2023-04-08T03:15:49;98397.83;;;21.83;18.07
69689;BME280;56932;38.402;-96.176;2023-04-08T03:18:15;98399.19;;;22.91;17.84
69689;BME280;56932;38.402;-96.176;2023-04-08T03:20:41;98398.83;;;22.26;18.12
69689;BME280;56932;38.402;-96.176;2023-04-08T03:23:06;98402.52;;;22.63;17.68
69689;BME280;56932;38.402;-96.176;2023-04-08T03:25:31;98401.93;;;22.28;18.21
69689;BME280;56932;38.402;-96.176;2023-04-08T03:27:58;98399.92;;;21.02;18.37
69689;BME280;56932;38.402;-96.176;2023-04-08T03:30:22;98397.18;;;21.99;18.25
69689;BME280;56932;38.402;-96.176;2023-04-08T03:32:48;98391.43;;;20.80;18.47
69689;BME280;56932;38.402;-96.176;2023-04-08T03:35:13;98391.94;;;21.83;18.11
69689;BME280;56932;38.402;-96.176;2023-04-08T03:37:38;98391.45;;;21.84;18.38
69689;BME280;56932;38.402;-96.176;2023-04-08T03:40:05;98390.73;;;21.41;18.52
69689;BME280;56932;38.402;-96.176;2023-04-08T03:42:29;98391.91;;;21.78;18.69
69689;BME280;56932;38.402;-96.176;2023-04-08T03:44:54;98396.49;;;19.86;19.40
69689;BME280;56932;38.402;-96.176;2023-04-08T03:47:20;98398.62;;;22.10;18.50
69689;BME280;56932;38.402;-96.176;2023-04-08T03:49:46;98399.94;;;19.51;19.94
69689;BME280;56932;38.402;-96.176;2023-04-08T03:52:10;98403.93;;;21.07;19.16
69689;BME280;56932;38.402;-96.176;2023-04-08T03:54:36;98405.79;;;21.31;19.13
69689;BME280;56932;38.402;-96.176;2023-04-08T03:57:02;98405.88;;;20.75;18.99
69689;BME280;56932;38.402;-96.176;2023-04-08T03:59:27;98404.92;;;21.10;19.07
69689;BME280;56932;38.402;-96.176;2023-04-08T04:01:53;98400.65;;;20.39;19.13
69689;BME280;56932;38.402;-96.176;2023-04-08T04:04:17;98403.74;;;21.01;19.25
69689;BME280;56932;38.402;-96.176;2023-04-08T04:06:43;98399.49;;;20.53;19.48
69689;BME280;56932;38.402;-96.176;2023-04-08T04:09:08;98394.76;;;21.34;18.83
69689;BME280;56932;38.402;-96.176;2023-04-08T04:11:34;98393.76;;;20.12;19.83
69689;BME280;56932;38.402;-96.176;2023-04-08T04:13:59;98390.91;;;19.21;20.35
69689;BME280;56932;38.402;-96.176;2023-04-08T04:16:24;98389.20;;;20.64;19.47
69689;BME280;56932;38.402;-96.176;2023-04-08T04:18:52;98387.93;;;20.20;19.35
69689;BME280;56932;38.402;-96.176;2023-04-08T04:21:15;98379.44;;;21.29;19.02
69689;BME280;56932;38.402;-96.176;2023-04-08T04:23:41;98376.61;;;20.17;19.86
69689;BME280;56932;38.402;-96.176;2023-04-08T04:26:08;98374.62;;;20.39;19.56
69689;BME280;56932;38.402;-96.176;2023-04-08T04:28:31;98375.35;;;20.70;19.38
69689;BME280;56932;38.402;-96.176;2023-04-08T04:30:57;98373.85;;;20.14;19.40
69689;BME280;56932;38.402;-96.176;2023-04-08T04:33:22;98367.07;;;20.83;19.29
69689;BME280;56932;38.402;-96.176;2023-04-08T04:35:48;98362.41;;;20.27;19.34
69689;BME280;56932;38.402;-96.176;2023-04-08T04:38:13;98360.46;;;20.89;19.30
69689;BME280;56932;38.402;-96.176;2023-04-08T04:40:39;98360.15;;;20.52;19.74
69689;BME280;56932;38.402;-96.176;2023-04-08T04:43:04;98359.35;;;20.13;19.84
69689;BME280;56932;38.402;-96.176;2023-04-08T04:45:29;98366.16;;;20.20;19.74
69689;BME280;56932;38.402;-96.176;2023-04-08T04:47:55;98372.35;;;19.98;19.74
69689;BME280;56932;38.402;-96.176;2023-04-08T04:50:20;98380.32;;;20.83;19.50
69689;BME280;56932;38.402;-96.176;2023-04-08T04:52:46;98376.73;;;19.64;19.88
69689;BME280;56932;38.402;-96.176;2023-04-08T04:55:11;98374.41;;;20.25;19.86
69689;BME280;56932;38.402;-96.176;2023-04-08T04:57:36;98372.54;;;20.98;19.74
69689;BME280;56932;38.402;-96.176;2023-04-08T05:00:02;98371.33;;;20.90;19.63
69689;BME280;56932;38.402;-96.176;2023-04-08T05:02:27;98370.61;;;19.81;20.43
69689;BME280;56932;38.402;-96.176;2023-04-08T05:04:53;98373.87;;;20.12;19.73
69689;BME280;56932;38.402;-96.176;2023-04-08T05:07:18;98374.34;;;21.00;19.54
69689;BME280;56932;38.402;-96.176;2023-04-08T05:09:44;98372.35;;;20.50;19.81
69689;BME280;56932;38.402;-96.176;2023-04-08T05:12:09;98372.22;;;18.79;21.11
69689;BME280;56932;38.402;-96.176;2023-04-08T05:14:34;98370.34;;;20.12;20.47
69689;BME280;56932;38.402;-96.176;2023-04-08T05:17:00;98370.43;;;20.28;19.99
69689;BME280;56932;38.402;-96.176;2023-04-08T05:19:25;98368.16;;;20.38;19.97
69689;BME280;56932;38.402;-96.176;2023-04-08T05:21:51;98361.32;;;18.96;20.68
69689;BME280;56932;38.402;-96.176;2023-04-08T05:24:16;98361.52;;;20.52;20.07
69689;BME280;56932;38.402;-96.176;2023-04-08T05:26:42;98356.96;;;20.64;20.22
69689;BME280;56932;38.402;-96.176;2023-04-08T05:29:07;98353.58;;;20.17;20.26
69689;BME280;56932;38.402;-96.176;2023-04-08T05:31:32;98353.52;;;20.48;20.19
69689;BME280;56932;38.402;-96.176;2023-04-08T05:33:58;98352.10;;;19.65;20.41
69689;BME280;56932;38.402;-96.176;2023-04-08T05:36:24;98353.70;;;19.88;20.76
69689;BME280;56932;38.402;-96.176;2023-04-08T05:38:50;98360.15;;;19.85;20.03
69689;BME280;56932;38.402;-96.176;2023-04-08T05:41:15;98360.00;;;20.37;20.20
69689;BME280;56932;38.402;-96.176;2023-04-08T05:43:40;98362.41;;;20.63;20.14
69689;BME280;56932;38.402;-96.176;2023-04-08T05:46:06;98368.27;;;19.81;20.62
69689;BME280;56932;38.402;-96.176;2023-04-08T05:48:32;98370.63;;;19.92;20.81
69689;BME280;56932;38.402;-96.176;2023-04-08T05:50:57;98372.53;;;19.58;20.52
69689;BME280;56932;38.402;-96.176;2023-04-08T05:53:22;98368.65;;;20.61;20.29
69689;BME280;56932;38.402;-96.176;2023-04-08T05:55:48;98370.56;;;19.32;20.93
69689;BME280;56932;38.402;-96.176;2023-04-08T05:58:13;98376.24;;;19.25;21.39
69689;BME280;56932;38.402;-96.176;2023-04-08T06:00:38;98377.80;;;20.43;20.38
69689;BME280;56932;38.402;-96.176;2023-04-08T06:03:04;98381.38;;;20.08;20.27
69689;BME280;56932;38.402;-96.176;2023-04-08T06:05:30;98388.14;;;20.38;20.42
69689;BME280;56932;38.402;-96.176;2023-04-08T06:07:55;98389.85;;;20.12;19.83
69689;BME280;56932;38.402;-96.176;2023-04-08T06:10:20;98395.61;;;20.26;20.26
69689;BME280;56932;38.402;-96.176;2023-04-08T06:12:46;98396.47;;;20.02;20.36
69689;BME280;56932;38.402;-96.176;2023-04-08T06:15:10;98397.31;;;19.66;20.87
69689;BME280;56932;38.402;-96.176;2023-04-08T06:17:36;98393.98;;;20.49;20.43
69689;BME280;56932;38.402;-96.176;2023-04-08T06:20:01;98392.28;;;19.63;20.95
69689;BME280;56932;38.402;-96.176;2023-04-08T06:22:26;98394.24;;;20.62;20.38
69689;BME280;56932;38.402;-96.176;2023-04-08T06:24:52;98390.43;;;19.17;20.69
69689;BME280;56932;38.402;-96.176;2023-04-08T06:27:18;98391.57;;;20.29;20.58
69689;BME280;56932;38.402;-96.176;2023-04-08T06:29:44;98388.24;;;19.92;20.66
69689;BME280;56932;38.402;-96.176;2023-04-08T06:32:09;98384.97;;;20.24;20.40
69689;BME280;56932;38.402;-96.176;2023-04-08T06:34:34;98386.42;;;20.25;20.40
69689;BME280;56932;38.402;-96.176;2023-04-08T06:37:00;98388.82;;;19.85;20.36
69689;BME280;56932;38.402;-96.176;2023-04-08T06:39:25;98385.27;;;20.08;20.50
69689;BME280;56932;38.402;-96.176;2023-04-08T06:41:51;98381.96;;;19.15;20.80
69689;BME280;56932;38.402;-96.176;2023-04-08T06:44:16;98379.03;;;19.98;20.89
69689;BME280;56932;38.402;-96.176;2023-04-08T06:46:42;98378.32;;;20.00;20.96
69689;BME280;56932;38.402;-96.176;2023-04-08T06:49:07;98379.86;;;18.97;21.59
69689;BME280;56932;38.402;-96.176;2023-04-08T06:51:32;98380.81;;;19.32;21.47
69689;BME280;56932;38.402;-96.176;2023-04-08T06:53:58;98379.00;;;19.17;21.02
69689;BME280;56932;38.402;-96.176;2023-04-08T06:56:24;98378.65;;;19.70;21.15
69689;BME280;56932;38.402;-96.176;2023-04-08T06:58:50;98381.47;;;19.33;20.65
69689;BME280;56932;38.402;-96.176;2023-04-08T07:01:14;98380.80;;;19.44;21.32
69689;BME280;56932;38.402;-96.176;2023-04-08T07:03:41;98374.08;;;19.98;21.09
69689;BME280;56932;38.402;-96.176;2023-04-08T07:06:06;98374.55;;;19.93;21.08
69689;BME280;56932;38.402;-96.176;2023-04-08T07:08:31;98377.68;;;19.18;21.91
69689;BME280;56932;38.402;-96.176;2023-04-08T07:10:56;98376.85;;;19.00;21.62
69689;BME280;56932;38.402;-96.176;2023-04-08T07:13:22;98373.55;;;19.62;21.50
69689;BME280;56932;38.402;-96.176;2023-04-08T07:15:48;98372.53;;;19.51;21.06
69689;BME280;56932;38.402;-96.176;2023-04-08T07:18:12;98369.66;;;19.86;21.42
69689;BME280;56932;38.402;-96.176;2023-04-08T07:20:38;98371.75;;;20.11;21.44
69689;BME280;56932;38.402;-96.176;2023-04-08T07:23:03;98368.66;;;19.63;21.66
69689;BME280;56932;38.402;-96.176;2023-04-08T07:25:29;98367.28;;;19.83;21.53
69689;BME280;56932;38.402;-96.176;2023-04-08T07:27:55;98365.20;;;19.12;21.32
69689;BME280;56932;38.402;-96.176;2023-04-08T07:30:20;98363.50;;;20.09;21.34
69689;BME280;56932;38.402;-96.176;2023-04-08T07:32:46;98364.89;;;19.52;21.43
69689;BME280;56932;38.402;-96.176;2023-04-08T07:35:11;98365.03;;;19.36;21.79
69689;BME280;56932;38.402;-96.176;2023-04-08T07:37:37;98359.92;;;19.99;21.53
69689;BME280;56932;38.402;-96.176;2023-04-08T07:40:02;98358.82;;;20.09;21.25
69689;BME280;56932;38.402;-96.176;2023-04-08T07:42:28;98358.97;;;20.08;21.50
69689;BME280;56932;38.402;-96.176;2023-04-08T07:44:54;98354.75;;;18.78;21.77
69689;BME280;56932;38.402;-96.176;2023-04-08T07:47:19;98355.70;;;19.20;22.18
69689;BME280;56932;38.402;-96.176;2023-04-08T07:49:46;98352.14;;;19.67;21.63
69689;BME280;56932;38.402;-96.176;2023-04-08T07:52:10;98351.36;;;19.62;21.67
69689;BME280;56932;38.402;-96.176;2023-04-08T07:54:35;98347.08;;;20.22;21.39
69689;BME280;56932;38.402;-96.176;2023-04-08T07:57:01;98346.08;;;19.67;21.66
69689;BME280;56932;38.402;-96.176;2023-04-08T07:59:27;98346.60;;;20.02;21.60
69689;BME280;56932;38.402;-96.176;2023-04-08T08:01:52;98341.84;;;19.09;21.59
69689;BME280;56932;38.402;-96.176;2023-04-08T08:04:17;98334.71;;;20.06;21.40
69689;BME280;56932;38.402;-96.176;2023-04-08T08:06:43;98331.98;;;20.02;21.41
69689;BME280;56932;38.402;-96.176;2023-04-08T08:09:08;98332.77;;;19.78;21.84
69689;BME280;56932;38.402;-96.176;2023-04-08T08:11:34;98338.08;;;18.75;22.77
69689;BME280;56932;38.402;-96.176;2023-04-08T08:13:59;98334.43;;;18.99;22.15
69689;BME280;56932;38.402;-96.176;2023-04-08T08:16:27;98333.53;;;20.25;21.68
69689;BME280;56932;38.402;-96.176;2023-04-08T08:18:51;98338.67;;;19.29;21.67
69689;BME280;56932;38.402;-96.176;2023-04-08T08:21:16;98336.84;;;19.66;21.96
69689;BME280;56932;38.402;-96.176;2023-04-08T08:23:42;98337.57;;;18.97;22.51
69689;BME280;56932;38.402;-96.176;2023-04-08T08:26:08;98336.39;;;18.86;22.62
69689;BME280;56932;38.402;-96.176;2023-04-08T08:28:33;98330.59;;;19.77;22.07
69689;BME280;56932;38.402;-96.176;2023-04-08T08:30:58;98328.38;;;19.38;21.81
69689;BME280;56932;38.402;-96.176;2023-04-08T08:33:24;98327.05;;;20.08;21.64
69689;BME280;56932;38.402;-96.176;2023-04-08T08:35:50;98327.32;;;19.07;22.06
69689;BME280;56932;38.402;-96.176;2023-04-08T08:38:15;98326.58;;;19.87;21.81
69689;BME280;56932;38.402;-96.176;2023-04-08T08:40:41;98322.63;;;19.66;22.00
69689;BME280;56932;38.402;-96.176;2023-04-08T08:43:06;98323.67;;;19.29;21.89
69689;BME280;56932;38.402;-96.176;2023-04-08T08:45:32;98323.67;;;20.03;21.70
69689;BME280;56932;38.402;-96.176;2023-04-08T08:47:57;98322.30;;;19.41;21.96
69689;BME280;56932;38.402;-96.176;2023-04-08T08:50:23;98322.01;;;19.73;21.90
69689;BME280;56932;38.402;-96.176;2023-04-08T08:52:49;98320.22;;;19.20;21.93
69689;BME280;56932;38.402;-96.176;2023-04-08T08:55:14;98318.87;;;19.82;21.66
69689;BME280;56932;38.402;-96.176;2023-04-08T08:57:39;98321.39;;;19.79;21.94
69689;BME280;56932;38.402;-96.176;2023-04-08T09:00:06;98321.21;;;19.44;22.01
69689;BME280;56932;38.402;-96.176;2023-04-08T09:02:31;98320.44;;;19.88;22.03
69689;BME280;56932;38.402;-96.176;2023-04-08T09:04:57;98319.61;;;18.84;21.94
69689;BME280;56932;38.402;-96.176;2023-04-08T09:07:24;98321.88;;;19.54;22.18
69689;BME280;56932;38.402;-96.176;2023-04-08T09:09:49;98325.40;;;18.70;22.47
69689;BME280;56932;38.402;-96.176;2023-04-08T09:12:13;98327.45;;;19.84;21.93
69689;BME280;56932;38.402;-96.176;2023-04-08T09:14:38;98327.62;;;19.36;22.51
69689;BME280;56932;38.402;-96.176;2023-04-08T09:17:04;98326.51;;;18.69;22.86
69689;BME280;56932;38.402;-96.176;2023-04-08T09:19:29;98324.57;;;19.63;22.26
69689;BME280;56932;38.402;-96.176;2023-04-08T09:24:26;98325.68;;;19.54;21.94
69689;BME280;56932;38.402;-96.176;2023-04-08T09:26:46;98327.34;;;19.17;22.05
69689;BME280;56932;38.402;-96.176;2023-04-08T09:29:11;98326.64;;;19.54;22.15
69689;BME280;56932;38.402;-96.176;2023-04-08T09:31:38;98329.04;;;19.30;22.29
69689;BME280;56932;38.402;-96.176;2023-04-08T09:34:08;98330.67;;;19.51;21.98
69689;BME280;56932;38.402;-96.176;2023-04-08T09:36:28;98331.08;;;19.79;22.27
69689;BME280;56932;38.402;-96.176;2023-04-08T09:38:54;98336.89;;;18.52;22.58
69689;BME280;56932;38.402;-96.176;2023-04-08T09:41:19;98332.74;;;19.51;22.12
69689;BME280;56932;38.402;-96.176;2023-04-08T09:43:48;98336.73;;;19.31;22.29
69689;BME280;56932;38.402;-96.176;2023-04-08T09:46:11;98335.72;;;19.63;22.00
69689;BME280;56932;38.402;-96.176;2023-04-08T09:48:41;98341.71;;;19.15;22.39
69689;BME280;56932;38.402;-96.176;2023-04-08T09:51:01;98345.77;;;19.00;22.30
69689;BME280;56932;38.402;-96.176;2023-04-08T09:53:32;98340.04;;;20.03;22.03
69689;BME280;56932;38.402;-96.176;2023-04-08T09:55:55;98347.28;;;18.29;22.55
69689;BME280;56932;38.402;-96.176;2023-04-08T09:58:21;98344.55;;;19.09;22.46
69689;BME280;56932;38.402;-96.176;2023-04-08T10:00:46;98347.53;;;19.12;22.40
69689;BME280;56932;38.402;-96.176;2023-04-08T10:03:12;98348.85;;;18.90;22.42
69689;BME280;56932;38.402;-96.176;2023-04-08T10:05:36;98344.66;;;19.20;22.54
69689;BME280;56932;38.402;-96.176;2023-04-08T10:07:59;98342.58;;;18.73;22.15
69689;BME280;56932;38.402;-96.176;2023-04-08T10:10:24;98347.23;;;19.51;22.28
69689;BME280;56932;38.402;-96.176;2023-04-08T10:12:51;98347.26;;;18.68;22.39
69689;BME280;56932;38.402;-96.176;2023-04-08T10:15:23;98348.27;;;18.31;23.08
69689;BME280;56932;38.402;-96.176;2023-04-08T10:17:41;98346.11;;;19.76;22.26
69689;BME280;56932;38.402;-96.176;2023-04-08T10:29:49;98348.31;;;18.91;22.14
69689;BME280;56932;38.402;-96.176;2023-04-08T10:34:50;98349.35;;;18.77;23.03
69689;BME280;56932;38.402;-96.176;2023-04-08T10:37:05;98353.81;;;18.89;22.60
69689;BME280;56932;38.402;-96.176;2023-04-08T10:39:30;98352.53;;;19.61;22.31
69689;BME280;56932;38.402;-96.176;2023-04-08T10:41:55;98352.77;;;18.52;22.48
69689;BME280;56932;38.402;-96.176;2023-04-08T10:44:22;98353.80;;;19.35;22.53
69689;BME280;56932;38.402;-96.176;2023-04-08T10:46:48;98350.71;;;18.29;23.04
69689;BME280;56932;38.402;-96.176;2023-04-08T10:49:12;98347.62;;;19.40;22.31
69689;BME280;56932;38.402;-96.176;2023-04-08T10:51:38;98345.37;;;19.57;22.33
69689;BME280;56932;38.402;-96.176;2023-04-08T10:54:06;98345.31;;;18.76;22.66
69689;BME280;56932;38.402;-96.176;2023-04-08T10:56:28;98346.67;;;19.28;22.40
69689;BME280;56932;38.402;-96.176;2023-04-08T10:58:54;98344.31;;;18.94;22.08
69689;BME280;56932;38.402;-96.176;2023-04-08T11:01:19;98350.70;;;18.73;22.85
69689;BME280;56932;38.402;-96.176;2023-04-08T11:03:44;98347.81;;;18.72;22.41
69689;BME280;56932;38.402;-96.176;2023-04-08T11:06:09;98347.63;;;18.98;22.42
69689;BME280;56932;38.402;-96.176;2023-04-08T11:08:35;98349.52;;;19.25;22.35
69689;BME280;56932;38.402;-96.176;2023-04-08T11:11:00;98355.25;;;18.49;22.38
69689;BME280;56932;38.402;-96.176;2023-04-08T11:13:25;98358.58;;;19.59;22.04
69689;BME280;56932;38.402;-96.176;2023-04-08T11:15:51;98358.22;;;18.45;22.35
69689;BME280;56932;38.402;-96.176;2023-04-08T11:18:16;98359.29;;;19.34;22.20
69689;BME280;56932;38.402;-96.176;2023-04-08T11:20:43;98363.64;;;19.27;22.45
69689;BME280;56932;38.402;-96.176;2023-04-08T11:23:12;98364.62;;;19.42;21.96
69689;BME280;56932;38.402;-96.176;2023-04-08T11:25:33;98364.50;;;19.22;22.48
69689;BME280;56932;38.402;-96.176;2023-04-08T11:27:59;98370.02;;;18.73;22.31
69689;BME280;56932;38.402;-96.176;2023-04-08T11:30:24;98364.25;;;19.12;22.20
69689;BME280;56932;38.402;-96.176;2023-04-08T11:32:50;98366.31;;;18.31;22.48
69689;BME280;56932;38.402;-96.176;2023-04-08T11:35:16;98365.84;;;18.98;22.29
69689;BME280;56932;38.402;-96.176;2023-04-08T11:37:41;98366.26;;;19.33;22.35
69689;BME280;56932;38.402;-96.176;2023-04-08T11:40:08;98365.54;;;18.49;22.64
69689;BME280;56932;38.402;-96.176;2023-04-08T11:42:32;98366.12;;;19.20;22.41
69689;BME280;56932;38.402;-96.176;2023-04-08T11:44:58;98363.75;;;18.52;22.38
69689;BME280;56932;38.402;-96.176;2023-04-08T11:47:30;98363.08;;;18.91;22.67
69689;BME280;56932;38.402;-96.176;2023-04-08T11:49:49;98361.62;;;19.15;22.05
69689;BME280;56932;38.402;-96.176;2023-04-08T11:52:14;98366.32;;;19.71;21.97
69689;BME280;56932;38.402;-96.176;2023-04-08T11:54:41;98369.78;;;19.12;22.43
69689;BME280;56932;38.402;-96.176;2023-04-08T11:57:04;98372.63;;;17.90;23.09
69689;BME280;56932;38.402;-96.176;2023-04-08T11:59:30;98373.83;;;19.50;22.33
69689;BME280;56932;38.402;-96.176;2023-04-08T12:01:56;98376.00;;;18.16;22.63
69689;BME280;56932;38.402;-96.176;2023-04-08T12:04:21;98376.81;;;19.06;22.43
69689;BME280;56932;38.402;-96.176;2023-04-08T12:06:47;98377.97;;;18.18;22.80
69689;BME280;56932;38.402;-96.176;2023-04-08T12:09:13;98375.27;;;18.54;22.50
69689;BME280;56932;38.402;-96.176;2023-04-08T12:11:38;98379.53;;;19.03;22.48
69689;BME280;56932;38.402;-96.176;2023-04-08T12:14:04;98380.94;;;18.88;22.18
69689;BME280;56932;38.402;-96.176;2023-04-08T12:16:29;98384.26;;;18.95;22.31
69689;BME280;56932;38.402;-96.176;2023-04-08T12:18:56;98386.80;;;18.14;22.37
69689;BME280;56932;38.402;-96.176;2023-04-08T12:21:20;98392.58;;;19.26;22.03
69689;BME280;56932;38.402;-96.176;2023-04-08T12:23:46;98388.87;;;18.62;22.34
69689;BME280;56932;38.402;-96.176;2023-04-08T12:26:11;98391.43;;;18.68;22.51
69689;BME280;56932;38.402;-96.176;2023-04-08T12:28:37;98388.42;;;18.77;22.62
69689;BME280;56932;38.402;-96.176;2023-04-08T12:31:03;98384.51;;;18.30;22.62
69689;BME280;56932;38.402;-96.176;2023-04-08T12:33:28;98385.12;;;18.30;23.35
69689;BME280;56932;38.402;-96.176;2023-04-08T12:35:54;98382.94;;;17.53;23.07
69689;BME280;56932;38.402;-96.176;2023-04-08T12:38:19;98386.62;;;18.16;22.94
69689;BME280;56932;38.402;-96.176;2023-04-08T12:40:45;98382.49;;;17.81;23.03
69689;BME280;56932;38.402;-96.176;2023-04-08T12:43:10;98383.26;;;18.38;22.53
69689;BME280;56932;38.402;-96.176;2023-04-08T12:45:35;98382.50;;;18.80;22.60